Helena, Kentucky
Current Conditions -  °F | °C
As of 10:55 AM on Friday 28 Nov 2014 (Local Time) from KFGX Reporting Station
Broken Clouds Broken Clouds  
Wind Chill: 23°   Ceiling: 7500
Heat Index: 31°   Visibility: 10mi
Dew Point: 19°   Wind: 9mph
Humidity: 61%   Direction: 210°SSW
Pressure: 30.39"   Gusts: NA
Location:  38.4934°N, 83.7754°W
Report Text: KFGX 281555Z AUTO 21008KT 10SM SCT025 BKN075 BKN100 00/M07 A3039 RMK AO2 T10041070
Loading
Personal Weather Stations






























Interactive Weather Map New forecast layout! Learn more

10-Day Weather Forecast

Advertisements
Track Severe Weather on mobile